Time;durP1;ratioP1;P1;durP2;ratioP2;P2;SDS_P1;SDS_P2;PMS_P1;PMS_P2;Temp;Humidity;BMP_temperature;BMP_pressure;BME280_temperature;BME280_humidity;BME280_pressure;Samples;Min_cycle;Max_cycle;Signal;HPM_P1;HPM_P2
2021/06/16 00:00:19;;;;;;;5.18;2.47;;;19.10;58.60;;;;;;5072632;28;20021;-76
2021/06/16 00:02:45;;;;;;;6.38;2.58;;;19.10;58.60;;;;;;5072581;28;20021;-76
2021/06/16 00:05:19;;;;;;;4.88;2.92;;;19.10;58.70;;;;;;5071085;28;20032;-77
2021/06/16 00:07:45;;;;;;;5.22;2.80;;;19.10;58.80;;;;;;5072309;28;20021;-76
2021/06/16 00:10:13;;;;;;;7.07;2.90;;;19.10;58.60;;;;;;5072487;28;20552;-75
2021/06/16 00:12:39;;;;;;;5.93;2.47;;;19.10;58.60;;;;;;5072579;28;20166;-75
2021/06/16 00:15:10;;;;;;;3.63;2.67;;;19.10;58.50;;;;;;5072364;28;20051;-76
2021/06/16 00:17:36;;;;;;;4.95;2.58;;;19.10;58.40;;;;;;5072216;28;20420;-76
2021/06/16 00:20:02;;;;;;;5.18;2.75;;;19.10;58.10;;;;;;5072382;28;20477;-76
2021/06/16 00:22:28;;;;;;;3.88;2.30;;;19.10;58.20;;;;;;5072273;28;20383;-76
2021/06/16 00:24:54;;;;;;;3.67;2.55;;;19.10;58.50;;;;;;5072237;28;20112;-76
2021/06/16 00:27:19;;;;;;;4.70;2.60;;;19.10;58.40;;;;;;5072387;28;20052;-77
2021/06/16 00:29:45;;;;;;;7.20;2.70;;;19.00;58.40;;;;;;5072392;28;20021;-77
2021/06/16 00:32:10;;;;;;;7.20;2.53;;;18.90;59.00;;;;;;5072226;28;20028;-77
2021/06/16 00:34:38;;;;;;;9.15;2.80;;;18.80;59.50;;;;;;5072316;28;20024;-77
2021/06/16 00:37:04;;;;;;;4.43;2.33;;;18.70;59.90;;;;;;5073796;28;20024;-77
2021/06/16 00:39:30;;;;;;;6.03;2.40;;;18.60;60.40;;;;;;5076499;28;20095;-78
2021/06/16 00:41:56;;;;;;;5.25;2.55;;;18.50;60.90;;;;;;5076337;28;20029;-78
2021/06/16 00:44:21;;;;;;;7.00;2.33;;;18.50;61.00;;;;;;5074838;28;20021;-78
2021/06/16 00:46:47;;;;;;;5.82;2.60;;;18.40;61.00;;;;;;5076231;28;20048;-78
2021/06/16 00:49:12;;;;;;;7.28;2.13;;;18.40;61.00;;;;;;5076196;28;20115;-77
2021/06/16 00:51:38;;;;;;;3.40;2.60;;;18.40;61.20;;;;;;5076059;28;20028;-76
2021/06/16 00:54:09;;;;;;;7.25;2.70;;;18.50;61.00;;;;;;5076204;28;20027;-77
2021/06/16 00:56:41;;;;;;;6.20;2.60;;;18.40;60.90;;;;;;5075981;28;20020;-77
2021/06/16 00:59:08;;;;;;;4.07;2.33;;;18.40;61.00;;;;;;5075967;28;20028;-76
2021/06/16 01:01:45;;;;;;;5.85;2.45;;;18.30;61.10;;;;;;5075899;28;20127;-77
2021/06/16 01:04:23;;;;;;;7.55;2.60;;;18.30;61.20;;;;;;5075911;28;20028;-77
2021/06/16 01:06:53;;;;;;;4.25;2.03;;;18.20;60.90;;;;;;5075900;28;20052;-77
2021/06/16 01:09:23;;;;;;;4.75;2.50;;;18.20;61.00;;;;;;5076056;28;20031;-77
2021/06/16 01:12:19;;;;;;;6.30;2.65;;;18.20;61.00;;;;;;5075639;28;20060;-77
2021/06/16 01:15:17;;;;;;;7.78;2.88;;;18.20;60.90;;;;;;5075679;28;20017;-77
2021/06/16 01:17:50;;;;;;;6.03;2.65;;;18.20;60.50;;;;;;5075518;28;20389;-77
2021/06/16 01:20:39;;;;;;;5.22;2.80;;;18.20;60.10;;;;;;5075474;28;20032;-76
2021/06/16 01:23:08;;;;;;;8.80;2.58;;;18.20;60.40;;;;;;5070252;28;20456;-76
2021/06/16 01:25:58;;;;;;;5.13;2.58;;;18.10;60.80;;;;;;5075502;28;20349;-76
2021/06/16 01:28:25;;;;;;;4.68;2.45;;;18.10;60.90;;;;;;5075509;28;20085;-76
2021/06/16 01:30:51;;;;;;;9.40;2.80;;;18.10;61.00;;;;;;5074218;28;20631;-77
2021/06/16 01:33:18;;;;;;;12.48;2.55;;;18.10;60.90;;;;;;5075469;28;20063;-77
2021/06/16 01:35:51;;;;;;;6.65;2.38;;;18.00;60.90;;;;;;5075296;28;20025;-78
2021/06/16 01:38:19;;;;;;;4.07;2.28;;;17.90;61.20;;;;;;5075300;28;20032;-77
2021/06/16 01:40:46;;;;;;;5.35;2.58;;;18.00;61.10;;;;;;5075347;28;20052;-76
2021/06/16 01:43:12;;;;;;;5.32;2.35;;;18.00;60.90;;;;;;5075132;28;20017;-78
2021/06/16 01:45:40;;;;;;;5.35;2.53;;;18.10;61.30;;;;;;5074790;28;20036;-77
2021/06/16 01:48:08;;;;;;;7.40;2.58;;;18.20;61.20;;;;;;5074718;28;20435;-77
2021/06/16 01:50:35;;;;;;;4.22;2.30;;;18.30;61.10;;;;;;5075092;28;20107;-78
2021/06/16 01:53:01;;;;;;;8.35;2.35;;;18.40;60.50;;;;;;5075002;28;20544;-79
2021/06/16 01:55:27;;;;;;;8.77;2.63;;;18.50;60.10;;;;;;5074994;28;20120;-80
2021/06/16 01:57:58;;;;;;;8.77;2.53;;;18.50;58.80;;;;;;5075077;28;20052;-78
2021/06/16 02:00:25;;;;;;;4.97;2.50;;;18.40;59.60;;;;;;5074915;28;20024;-78
2021/06/16 02:02:51;;;;;;;4.57;2.47;;;18.40;60.30;;;;;;5074751;28;20090;-78
2021/06/16 02:05:19;;;;;;;6.13;2.30;;;18.40;59.80;;;;;;5074793;28;20480;-80
2021/06/16 02:08:05;;;;;;;6.13;2.38;;;18.50;59.30;;;;;;5073518;28;20033;-80
2021/06/16 02:10:37;;;;;;;8.43;2.35;;;18.70;59.50;;;;;;5074913;28;20021;-77
2021/06/16 02:13:06;;;;;;;7.55;2.50;;;18.70;58.40;;;;;;5074645;28;20549;-77
2021/06/16 02:15:54;;;;;;;6.97;2.75;;;18.70;58.40;;;;;;5075152;28;20021;-77
2021/06/16 02:18:25;;;;;;;8.85;2.70;;;18.70;58.90;;;;;;5075082;28;20021;-76
2021/06/16 02:20:51;;;;;;;3.88;2.63;;;18.80;58.60;;;;;;5074905;28;20020;-77
2021/06/16 02:23:17;;;;;;;2.88;2.25;;;18.80;58.50;;;;;;5075136;28;20425;-77
2021/06/16 02:25:43;;;;;;;4.25;2.13;;;18.80;58.60;;;;;;5076489;28;20036;-77
2021/06/16 02:28:09;;;;;;;4.00;2.33;;;18.80;57.80;;;;;;5075128;28;20065;-77
2021/06/16 02:30:35;;;;;;;4.57;2.13;;;18.80;57.50;;;;;;5076708;28;20035;-77
2021/06/16 02:33:00;;;;;;;3.30;2.25;;;18.70;57.40;;;;;;5077561;28;20465;-76
2021/06/16 02:35:26;;;;;;;4.47;2.40;;;18.70;58.10;;;;;;5079489;28;20017;-76
2021/06/16 02:37:59;;;;;;;4.22;2.22;;;18.70;57.60;;;;;;5078899;28;20029;-76
2021/06/16 02:40:25;;;;;;;3.20;2.47;;;18.70;58.50;;;;;;5088737;28;20020;-76
2021/06/16 02:42:51;;;;;;;2.50;2.00;;;18.70;58.30;;;;;;5089027;28;20020;-76
2021/06/16 02:45:19;;;;;;;6.18;2.83;;;18.80;58.20;;;;;;5087932;28;20020;-76
2021/06/16 02:47:48;;;;;;;6.35;2.30;;;18.70;58.60;;;;;;5085306;28;20062;-81
2021/06/16 02:50:19;;;;;;;5.63;2.10;;;18.80;57.40;;;;;;5080334;28;20107;-77
2021/06/16 02:52:46;;;;;;;4.05;2.13;;;18.70;58.10;;;;;;5076344;28;20025;-77
2021/06/16 02:55:14;;;;;;;6.03;2.60;;;18.70;58.40;;;;;;5074763;28;20078;-78
2021/06/16 02:57:43;;;;;;;5.07;2.50;;;18.70;58.40;;;;;;5074936;28;20028;-76
2021/06/16 03:00:11;;;;;;;4.82;2.42;;;18.60;58.00;;;;;;5073871;28;20017;-75
2021/06/16 03:02:40;;;;;;;7.03;3.20;;;18.60;58.10;;;;;;5074240;28;20031;-81
2021/06/16 03:05:06;;;;;;;7.00;2.50;;;18.60;57.70;;;;;;5074170;28;20062;-79
2021/06/16 03:07:34;;;;;;;3.55;2.47;;;18.20;58.50;;;;;;5074136;28;20043;-81
2021/06/16 03:10:00;;;;;;;3.42;2.08;;;18.10;59.40;;;;;;5072754;28;20024;-82
2021/06/16 03:12:27;;;;;;;3.30;2.50;;;18.00;60.00;;;;;;5073713;28;20078;-80
2021/06/16 03:14:53;;;;;;;6.15;2.67;;;18.00;60.30;;;;;;5073762;28;20103;-80
2021/06/16 03:17:20;;;;;;;5.25;2.50;;;17.90;61.60;;;;;;5073996;28;20081;-80
2021/06/16 03:19:48;;;;;;;8.55;3.10;;;17.80;61.20;;;;;;5073954;28;20032;-80
2021/06/16 03:22:14;;;;;;;6.13;2.53;;;17.70;61.80;;;;;;5073762;28;20054;-80
2021/06/16 03:24:43;;;;;;;7.57;2.55;;;17.60;62.30;;;;;;5072706;28;20489;-80
2021/06/16 03:27:09;;;;;;;6.18;2.55;;;17.60;62.60;;;;;;5073711;28;20040;-80
2021/06/16 03:29:35;;;;;;;6.72;2.78;;;17.50;62.90;;;;;;5074194;28;20038;-80
2021/06/16 03:32:03;;;;;;;6.43;2.45;;;17.40;63.00;;;;;;5074065;28;20024;-79
2021/06/16 03:34:29;;;;;;;4.15;2.33;;;17.50;63.20;;;;;;5073957;28;20070;-79
2021/06/16 03:36:59;;;;;;;6.80;2.60;;;17.50;63.40;;;;;;5072728;28;20115;-79
2021/06/16 03:39:26;;;;;;;6.03;2.75;;;17.50;63.50;;;;;;5073948;28;20500;-80
2021/06/16 03:41:51;;;;;;;5.53;2.20;;;17.50;63.50;;;;;;5073831;28;20025;-80
2021/06/16 03:44:18;;;;;;;4.97;2.80;;;17.60;63.30;;;;;;5073407;28;20025;-80
2021/06/16 03:46:44;;;;;;;5.47;2.70;;;17.60;63.10;;;;;;5073239;28;20493;-80
2021/06/16 03:49:12;;;;;;;6.13;2.60;;;17.60;63.00;;;;;;5071717;28;20457;-80
2021/06/16 03:51:40;;;;;;;6.13;2.97;;;17.70;63.60;;;;;;5073118;28;20115;-79
2021/06/16 03:54:11;;;;;;;8.38;2.88;;;17.60;63.40;;;;;;5073019;28;20385;-80
2021/06/16 03:56:41;;;;;;;7.43;3.10;;;17.60;62.50;;;;;;5073476;28;20017;-80
2021/06/16 03:59:08;;;;;;;8.93;3.33;;;17.50;63.30;;;;;;5072026;28;20384;-80
2021/06/16 04:01:37;;;;;;;6.97;3.28;;;17.50;63.50;;;;;;5073258;28;20107;-80
2021/06/16 04:04:11;;;;;;;9.63;2.80;;;17.50;63.50;;;;;;5072948;28;20069;-80
2021/06/16 04:06:40;;;;;;;8.13;3.00;;;17.50;63.40;;;;;;5072454;28;20477;-80
2021/06/16 04:09:07;;;;;;;6.72;2.78;;;17.60;63.10;;;;;;5072683;28;20381;-81
2021/06/16 04:11:33;;;;;;;10.70;3.10;;;17.60;63.00;;;;;;5072637;28;20024;-82
2021/06/16 04:13:59;;;;;;;4.93;2.70;;;17.60;62.90;;;;;;5071446;28;20027;-81
2021/06/16 04:16:26;;;;;;;7.18;2.50;;;17.70;63.00;;;;;;5086338;28;20028;-80
2021/06/16 04:18:52;;;;;;;6.47;2.60;;;17.70;63.00;;;;;;5088166;28;20052;-81
2021/06/16 04:21:18;;;;;;;6.97;2.45;;;17.80;62.80;;;;;;5074686;28;20031;-80
2021/06/16 04:23:44;;;;;;;6.72;2.80;;;17.80;62.60;;;;;;5073123;28;20025;-81
2021/06/16 04:26:10;;;;;;;5.60;2.88;;;17.90;62.40;;;;;;5071162;28;20048;-80
2021/06/16 04:28:35;;;;;;;6.38;3.42;;;17.90;62.40;;;;;;5071194;28;20043;-81
2021/06/16 04:31:01;;;;;;;8.70;2.80;;;17.90;62.30;;;;;;5071095;28;20105;-81
2021/06/16 04:33:27;;;;;;;11.02;3.20;;;17.90;62.00;;;;;;5072489;28;20021;-83
2021/06/16 04:35:52;;;;;;;7.15;2.83;;;18.00;61.50;;;;;;5071202;28;20461;-81
2021/06/16 04:38:18;;;;;;;5.53;2.50;;;18.00;61.70;;;;;;5072287;28;20099;-81
2021/06/16 04:40:43;;;;;;;4.43;2.33;;;18.10;61.70;;;;;;5071021;28;20050;-80
2021/06/16 04:43:09;;;;;;;7.82;2.90;;;18.10;61.70;;;;;;5071314;28;20055;-80
2021/06/16 04:45:35;;;;;;;6.18;3.10;;;18.10;61.80;;;;;;5071623;28;20093;-80
2021/06/16 04:48:00;;;;;;;10.45;3.10;;;18.10;61.80;;;;;;5072729;28;20064;-80
2021/06/16 04:50:26;;;;;;;5.45;3.00;;;18.10;62.20;;;;;;5072709;28;20066;-80
2021/06/16 04:52:51;;;;;;;11.70;3.53;;;18.10;62.40;;;;;;5072837;28;20079;-81
2021/06/16 04:55:17;;;;;;;8.13;2.95;;;18.20;62.00;;;;;;5071551;28;20070;-83
2021/06/16 04:57:43;;;;;;;8.60;2.75;;;18.30;61.80;;;;;;5072687;28;20103;-83
2021/06/16 05:00:11;;;;;;;5.95;2.65;;;18.40;61.10;;;;;;5072765;28;20036;-82
2021/06/16 05:02:37;;;;;;;7.15;3.13;;;18.50;60.90;;;;;;5072596;28;20081;-81
2021/06/16 05:05:04;;;;;;;6.07;3.28;;;18.70;60.70;;;;;;5072544;28;20481;-82
2021/06/16 05:07:30;;;;;;;13.45;2.90;;;18.60;60.40;;;;;;5071909;28;20123;-83
2021/06/16 05:09:56;;;;;;;7.70;2.75;;;18.80;60.30;;;;;;5072607;28;20531;-83
2021/06/16 05:12:21;;;;;;;4.07;3.10;;;18.80;60.00;;;;;;5072001;28;20021;-78
2021/06/16 05:14:47;;;;;;;5.68;3.47;;;18.90;59.60;;;;;;5072114;28;20410;-81
2021/06/16 05:17:13;;;;;;;8.02;3.38;;;18.90;60.30;;;;;;5072362;28;20472;-81
2021/06/16 05:19:38;;;;;;;8.65;3.58;;;18.90;60.50;;;;;;5072186;28;20016;-81
2021/06/16 05:22:13;;;;;;;11.18;3.90;;;18.90;60.70;;;;;;5072255;28;20493;-81
2021/06/16 05:24:40;;;;;;;8.43;3.60;;;18.90;61.50;;;;;;5075873;28;20030;-81
2021/06/16 05:27:06;;;;;;;7.97;3.58;;;19.10;60.70;;;;;;5075756;28;20090;-82
2021/06/16 05:29:32;;;;;;;4.45;2.80;;;19.20;60.30;;;;;;5075841;28;20031;-82
2021/06/16 05:31:58;;;;;;;7.97;3.60;;;19.40;59.70;;;;;;5075786;28;20448;-80
2021/06/16 05:34:23;;;;;;;7.47;3.10;;;19.60;59.00;;;;;;5075715;28;20093;-81
2021/06/16 05:36:49;;;;;;;9.63;3.78;;;19.60;58.20;;;;;;5075972;28;20029;-81
2021/06/16 05:39:15;;;;;;;7.70;3.20;;;19.80;57.80;;;;;;5075600;28;20108;-81
2021/06/16 05:41:40;;;;;;;8.25;3.35;;;19.90;57.50;;;;;;5075793;28;20056;-82
2021/06/16 05:44:06;;;;;;;9.20;3.83;;;20.10;57.00;;;;;;5075537;28;20429;-81
2021/06/16 05:46:32;;;;;;;6.65;3.50;;;20.20;56.80;;;;;;5075460;28;20051;-80
2021/06/16 05:48:57;;;;;;;5.47;3.20;;;20.40;56.70;;;;;;5075596;28;20024;-80
2021/06/16 05:51:23;;;;;;;11.35;3.40;;;20.60;56.30;;;;;;5075714;28;20048;-80
2021/06/16 05:53:49;;;;;;;10.77;2.60;;;20.70;55.50;;;;;;5075666;28;20032;-79
2021/06/16 05:56:14;;;;;;;15.88;2.92;;;20.80;56.90;;;;;;5075833;28;20116;-79
2021/06/16 05:58:40;;;;;;;4.15;2.67;;;21.00;58.30;;;;;;5075445;28;20029;-79
2021/06/16 06:01:06;;;;;;;7.05;3.05;;;21.30;55.50;;;;;;5075349;28;20405;-77
2021/06/16 06:03:31;;;;;;;7.93;2.58;;;21.50;55.00;;;;;;5075211;28;20021;-80
2021/06/16 06:05:57;;;;;;;10.55;3.25;;;21.60;54.50;;;;;;5075120;28;20499;-77
2021/06/16 06:08:23;;;;;;;8.35;3.30;;;21.70;53.60;;;;;;5075300;28;20021;-77
2021/06/16 06:10:48;;;;;;;8.23;2.40;;;21.90;53.10;;;;;;5075009;28;20021;-74
2021/06/16 06:13:14;;;;;;;10.23;2.80;;;22.10;53.10;;;;;;5074917;28;20031;-74
2021/06/16 06:15:40;;;;;;;6.40;2.92;;;22.30;52.40;;;;;;5074983;28;20024;-74
2021/06/16 06:18:05;;;;;;;5.72;2.88;;;22.40;52.00;;;;;;5075056;28;20020;-75
2021/06/16 06:20:31;;;;;;;5.97;2.60;;;22.60;51.60;;;;;;5074869;28;20032;-75
2021/06/16 06:22:57;;;;;;;7.53;2.63;;;22.70;50.30;;;;;;5074739;28;20033;-75
2021/06/16 06:25:23;;;;;;;9.43;2.90;;;22.80;49.40;;;;;;5074664;28;20113;-76
2021/06/16 06:27:49;;;;;;;6.03;2.25;;;22.90;48.90;;;;;;5074661;28;20032;-76
2021/06/16 06:30:14;;;;;;;4.90;2.45;;;22.90;48.80;;;;;;5074587;28;20103;-76
2021/06/16 06:32:40;;;;;;;8.82;2.38;;;23.10;48.80;;;;;;5074590;28;20025;-77
2021/06/16 06:35:07;;;;;;;11.65;2.95;;;23.20;48.10;;;;;;5073474;28;20021;-76
2021/06/16 06:37:32;;;;;;;4.70;2.38;;;23.40;47.50;;;;;;5074616;28;20055;-76
2021/06/16 06:39:58;;;;;;;7.55;2.53;;;23.50;47.50;;;;;;5074413;28;20052;-77
2021/06/16 06:42:23;;;;;;;6.82;2.80;;;23.60;47.40;;;;;;5074540;28;20065;-78
2021/06/16 06:44:49;;;;;;;7.05;2.75;;;23.70;47.10;;;;;;5074233;28;20029;-76
2021/06/16 06:47:14;;;;;;;7.97;2.30;;;23.90;46.70;;;;;;5074025;28;20493;-76
2021/06/16 06:49:40;;;;;;;6.85;2.22;;;24.10;46.40;;;;;;5074154;28;20043;-76
2021/06/16 06:52:06;;;;;;;4.63;2.10;;;24.30;45.90;;;;;;5072995;28;20024;-76
2021/06/16 06:54:35;;;;;;;5.68;2.10;;;24.50;45.20;;;;;;5074150;28;20029;-76
2021/06/16 06:57:01;;;;;;;9.00;2.38;;;24.70;44.80;;;;;;5074171;28;20017;-76
2021/06/16 06:59:27;;;;;;;6.28;2.70;;;24.80;44.60;;;;;;5073983;28;20405;-76
2021/06/16 07:01:52;;;;;;;5.95;2.75;;;24.90;44.70;;;;;;5073812;28;20119;-76
2021/06/16 07:04:18;;;;;;;4.50;2.45;;;25.00;44.50;;;;;;5072394;28;20052;-75
2021/06/16 07:06:44;;;;;;;7.72;2.67;;;25.10;44.10;;;;;;5073882;28;20058;-76
2021/06/16 07:09:09;;;;;;;5.53;2.78;;;25.00;43.60;;;;;;5073870;28;20086;-76
2021/06/16 07:11:35;;;;;;;6.45;2.78;;;25.10;44.00;;;;;;5074062;28;20063;-76
2021/06/16 07:14:00;;;;;;;10.82;2.83;;;25.20;44.20;;;;;;5073783;28;20085;-76
2021/06/16 07:16:26;;;;;;;10.70;2.55;;;25.30;42.20;;;;;;5073819;28;20078;-76
2021/06/16 07:18:52;;;;;;;5.20;1.52;;;25.30;42.90;;;;;;5073558;28;20032;-76
2021/06/16 07:21:17;;;;;;;7.32;2.25;;;25.40;41.90;;;;;;5073377;28;20107;-76
2021/06/16 07:23:43;;;;;;;4.75;1.60;;;25.50;41.30;;;;;;5073798;28;20029;-75
2021/06/16 07:26:09;;;;;;;4.47;1.70;;;25.50;39.20;;;;;;5073862;28;20032;-76
2021/06/16 07:28:34;;;;;;;8.02;1.65;;;25.60;37.50;;;;;;5073532;28;20044;-76
2021/06/16 07:31:01;;;;;;;4.55;1.73;;;25.70;37.80;;;;;;5073534;28;20020;-77
2021/06/16 07:33:27;;;;;;;4.22;1.70;;;25.80;39.00;;;;;;5073511;28;20064;-76
2021/06/16 07:35:52;;;;;;;4.25;1.90;;;25.90;37.50;;;;;;5073319;28;20537;-76
2021/06/16 07:38:18;;;;;;;4.75;1.50;;;26.00;37.40;;;;;;5073254;28;20028;-75
2021/06/16 07:40:44;;;;;;;3.22;1.95;;;26.10;36.40;;;;;;5073362;28;20150;-76
2021/06/16 07:43:09;;;;;;;3.80;1.85;;;26.10;36.70;;;;;;5073339;28;20154;-82
2021/06/16 07:45:35;;;;;;;3.55;1.60;;;26.20;36.30;;;;;;5075070;28;20047;-81
2021/06/16 07:48:01;;;;;;;10.20;1.80;;;26.30;35.70;;;;;;5074705;28;20098;-81
2021/06/16 07:50:27;;;;;;;2.90;1.92;;;26.30;34.70;;;;;;5086321;28;20178;-81
2021/06/16 07:52:53;;;;;;;2.28;1.40;;;26.40;34.50;;;;;;5094487;28;20035;-80
2021/06/16 07:55:19;;;;;;;3.10;1.52;;;26.50;35.00;;;;;;5082341;28;20032;-82
2021/06/16 07:57:45;;;;;;;3.50;1.58;;;26.50;34.40;;;;;;5074290;28;20029;-79
2021/06/16 08:00:11;;;;;;;2.20;1.60;;;26.50;33.90;;;;;;5073324;28;20017;-80
2021/06/16 08:02:38;;;;;;;4.65;1.80;;;26.60;34.50;;;;;;5073187;28;20028;-82
2021/06/16 08:05:05;;;;;;;2.58;1.70;;;26.60;33.90;;;;;;5071842;28;20503;-82
2021/06/16 08:07:30;;;;;;;2.70;1.92;;;26.70;33.70;;;;;;5074418;28;20392;-83
2021/06/16 08:09:56;;;;;;;3.45;1.83;;;26.80;33.30;;;;;;5072582;28;20052;-82
2021/06/16 08:12:21;;;;;;;3.85;1.70;;;26.70;33.00;;;;;;5073840;28;20060;-83
2021/06/16 08:14:47;;;;;;;5.55;1.60;;;26.70;33.10;;;;;;5073539;28;20031;-81
2021/06/16 08:17:13;;;;;;;6.60;2.25;;;26.70;33.10;;;;;;5073640;28;20104;-83
2021/06/16 08:19:38;;;;;;;4.30;1.77;;;26.70;33.10;;;;;;5073565;28;20029;-82
2021/06/16 08:22:08;;;;;;;4.82;1.65;;;26.70;33.00;;;;;;5072006;28;20107;-80
2021/06/16 08:24:34;;;;;;;4.82;1.75;;;26.60;33.00;;;;;;5086714;28;20028;-86
2021/06/16 08:26:59;;;;;;;3.22;1.77;;;26.70;33.90;;;;;;5078827;28;20043;-81
2021/06/16 08:29:25;;;;;;;8.70;2.00;;;26.80;34.30;;;;;;5084655;28;20028;-80
2021/06/16 08:31:50;;;;;;;1.92;1.52;;;26.90;33.40;;;;;;5085118;28;20218;-81
2021/06/16 08:34:16;;;;;;;3.58;1.85;;;27.00;33.80;;;;;;5083379;28;20021;-80
2021/06/16 08:36:44;;;;;;;3.92;1.80;;;27.00;33.50;;;;;;5087012;28;20031;-82
2021/06/16 08:39:10;;;;;;;6.43;1.80;;;27.00;32.90;;;;;;5087681;28;20028;-81
2021/06/16 08:41:36;;;;;;;4.38;1.83;;;27.10;33.00;;;;;;5087930;28;20016;-81
2021/06/16 08:44:02;;;;;;;3.35;1.90;;;27.10;33.40;;;;;;5083181;28;20453;-83
2021/06/16 08:46:30;;;;;;;3.08;1.58;;;27.20;32.50;;;;;;5073829;28;20059;-81
2021/06/16 08:48:56;;;;;;;4.65;1.85;;;27.10;32.10;;;;;;5073481;28;20056;-81
2021/06/16 08:51:21;;;;;;;4.32;1.55;;;27.20;32.70;;;;;;5071756;28;20043;-81
2021/06/16 08:53:49;;;;;;;4.43;1.92;;;27.40;33.60;;;;;;5075054;28;20025;-78
2021/06/16 08:56:14;;;;;;;4.80;2.00;;;27.50;32.70;;;;;;5073563;28;20053;-79
2021/06/16 08:58:41;;;;;;;4.40;1.80;;;27.60;32.10;;;;;;5075294;28;20075;-77
2021/06/16 09:01:09;;;;;;;8.57;1.98;;;27.60;32.30;;;;;;5078475;28;20417;-81
2021/06/16 09:03:36;;;;;;;3.78;2.00;;;27.60;31.80;;;;;;5076442;28;20599;-79
2021/06/16 09:06:19;;;;;;;3.30;1.98;;;27.60;32.20;;;;;;5076621;28;20501;-84
2021/06/16 09:08:55;;;;;;;3.58;2.10;;;27.80;32.50;;;;;;5076564;28;20095;-80
2021/06/16 09:11:22;;;;;;;5.28;1.65;;;27.80;33.00;;;;;;5076043;28;20031;-79
2021/06/16 09:13:48;;;;;;;8.05;1.80;;;28.00;33.90;;;;;;5076348;28;20040;-80
2021/06/16 09:16:29;;;;;;;5.22;1.85;;;28.20;34.20;;;;;;5075980;28;20020;-79
2021/06/16 09:18:56;;;;;;;2.05;1.80;;;28.30;33.80;;;;;;5076275;28;20059;-77
2021/06/16 09:21:36;;;;;;;4.68;2.03;;;28.40;33.30;;;;;;5076404;28;20036;-77
2021/06/16 09:24:03;;;;;;;4.55;1.75;;;28.50;32.50;;;;;;5076158;28;20024;-78
2021/06/16 09:26:34;;;;;;;1.75;1.50;;;28.60;32.80;;;;;;5075980;28;20028;-78
2021/06/16 09:29:01;;;;;;;4.78;2.45;;;28.70;33.40;;;;;;5076165;28;20404;-79
2021/06/16 09:31:33;;;;;;;2.90;2.35;;;28.80;32.50;;;;;;5076176;28;20477;-78
2021/06/16 09:34:08;;;;;;;4.40;1.95;;;28.80;32.60;;;;;;5075780;28;20021;-78
2021/06/16 09:36:44;;;;;;;;;;;28.90;33.20;;;;;;5076360;28;20369;-79
2021/06/16 09:39:10;;;;;;;2.85;1.92;;;29.00;33.70;;;;;;5074770;28;20025;-78
2021/06/16 09:41:50;;;;;;;5.50;1.88;;;29.00;32.40;;;;;;5074170;28;20058;-79
2021/06/16 09:44:37;;;;;;;3.78;2.30;;;28.80;30.80;;;;;;5075538;28;20498;-78
2021/06/16 09:47:10;;;;;;;5.25;2.30;;;28.70;29.80;;;;;;5075114;28;20048;-79
2021/06/16 09:49:51;;;;;;;4.45;1.90;;;28.50;30.20;;;;;;5075556;28;20024;-78
2021/06/16 09:52:47;;;;;;;3.05;2.00;;;28.50;30.20;;;;;;5075409;28;20029;-81
2021/06/16 09:55:13;;;;;;;2.55;2.00;;;28.60;28.60;;;;;;5061872;28;20501;-80
2021/06/16 09:57:57;;;;;;;3.35;2.17;;;28.70;29.80;;;;;;5075456;28;20021;-78
2021/06/16 10:00:34;;;;;;;3.53;1.98;;;28.80;29.90;;;;;;5075221;28;20025;-83
2021/06/16 10:03:11;;;;;;;2.53;2.10;;;28.90;30.80;;;;;;5074988;28;20024;-79
2021/06/16 10:06:08;;;;;;;6.45;2.50;;;29.10;31.80;;;;;;5074986;28;20035;-79
2021/06/16 10:08:35;;;;;;;5.32;1.73;;;29.20;31.30;;;;;;5075077;28;20070;-79
2021/06/16 10:11:03;;;;;;;2.05;1.70;;;29.20;30.30;;;;;;5074817;28;20126;-79
2021/06/16 10:13:30;;;;;;;2.15;1.70;;;29.30;28.80;;;;;;5074884;28;20024;-78
2021/06/16 10:15:59;;;;;;;4.90;1.98;;;29.20;28.40;;;;;;5073534;28;20017;-80
2021/06/16 10:18:26;;;;;;;4.00;2.05;;;29.20;28.00;;;;;;5075037;28;20770;-79
2021/06/16 10:20:53;;;;;;;6.82;1.70;;;29.20;26.90;;;;;;5074755;28;20017;-79
2021/06/16 10:23:20;;;;;;;2.78;1.70;;;29.20;25.60;;;;;;5074786;28;20049;-79
2021/06/16 10:25:46;;;;;;;4.68;1.55;;;29.30;26.20;;;;;;5074857;28;20043;-80
2021/06/16 10:28:15;;;;;;;3.22;1.92;;;29.50;25.90;;;;;;5074467;28;20107;-80
2021/06/16 10:30:43;;;;;;;6.95;2.00;;;29.50;27.00;;;;;;5074501;28;20020;-79
2021/06/16 10:33:35;;;;;;;7.03;2.10;;;29.50;27.90;;;;;;5074300;28;20040;-79
2021/06/16 10:36:13;;;;;;;6.00;1.85;;;29.70;29.00;;;;;;5074741;28;20028;-79
2021/06/16 10:38:40;;;;;;;4.88;2.20;;;29.70;28.00;;;;;;5074457;28;20027;-79
2021/06/16 10:41:06;;;;;;;4.05;1.85;;;29.70;27.90;;;;;;5074523;28;20522;-79
2021/06/16 10:43:31;;;;;;;2.63;1.98;;;29.70;27.70;;;;;;5074326;28;20028;-79
2021/06/16 10:46:00;;;;;;;4.05;1.70;;;29.90;27.90;;;;;;5074007;28;20039;-80
2021/06/16 10:48:43;;;;;;;2.20;1.40;;;30.10;26.70;;;;;;5074560;28;20484;-78
2021/06/16 10:51:26;;;;;;;1.42;1.30;;;30.20;25.00;;;;;;5075634;28;20081;-79
2021/06/16 10:54:10;;;;;;;4.32;1.75;;;30.20;25.30;;;;;;5096604;28;20013;-78
2021/06/16 10:56:43;;;;;;;5.38;1.90;;;30.20;24.90;;;;;;5082993;28;20032;-78
2021/06/16 10:59:08;;;;;;;3.83;2.08;;;30.40;24.90;;;;;;5071729;28;20028;-77
2021/06/16 11:01:50;;;;;;;2.83;1.85;;;30.40;25.50;;;;;;5073281;28;20031;-81
2021/06/16 11:04:30;;;;;;;2.50;1.60;;;30.50;25.90;;;;;;5073793;28;20024;-78
2021/06/16 11:06:56;;;;;;;1.88;1.70;;;30.70;26.60;;;;;;5073419;28;20040;-77
2021/06/16 11:09:53;;;;;;;2.80;1.77;;;31.00;27.20;;;;;;5073178;28;20073;-75
2021/06/16 11:12:39;;;;;;;4.82;1.88;;;31.20;26.70;;;;;;5073337;28;20027;-78
2021/06/16 11:15:10;;;;;;;4.40;1.75;;;31.50;27.20;;;;;;5073358;28;20021;-78
2021/06/16 11:17:36;;;;;;;4.03;2.13;;;31.50;26.20;;;;;;5073246;28;20334;-79
2021/06/16 11:20:18;;;;;;;1.95;1.75;;;31.60;25.40;;;;;;5071598;28;20031;-78
2021/06/16 11:22:53;;;;;;;3.85;1.80;;;31.80;25.90;;;;;;5073687;28;20029;-78
2021/06/16 11:25:18;;;;;;;5.43;2.45;;;31.80;25.50;;;;;;5073277;28;20025;-78
2021/06/16 11:27:58;;;;;;;2.72;1.55;;;31.70;24.50;;;;;;5073056;28;20031;-79
2021/06/16 11:30:53;;;;;;;2.13;1.90;;;31.60;24.80;;;;;;5071927;28;20048;-78
2021/06/16 11:33:18;;;;;;;3.78;2.20;;;31.70;25.20;;;;;;5064327;28;20044;-78
2021/06/16 11:35:50;;;;;;;5.13;1.95;;;31.70;24.50;;;;;;5073256;28;20038;-79
2021/06/16 11:38:21;;;;;;;1.75;1.63;;;31.70;23.40;;;;;;5073031;28;20024;-78
2021/06/16 11:40:58;;;;;;;2.00;1.70;;;31.80;23.20;;;;;;5072802;28;20107;-79
2021/06/16 11:43:40;;;;;;;2.33;1.83;;;31.90;22.90;;;;;;5073238;28;20035;-78
2021/06/16 11:46:28;;;;;;;3.05;2.22;;;32.00;23.20;;;;;;5072578;28;20049;-77
2021/06/16 11:49:10;;;;;;;4.60;2.00;;;32.10;23.60;;;;;;5072668;28;20012;-79
2021/06/16 11:51:51;;;;;;;2.70;1.90;;;32.10;23.10;;;;;;5071989;28;20035;-79
2021/06/16 11:54:22;;;;;;;2.65;1.70;;;32.20;23.90;;;;;;5073233;28;20554;-80
2021/06/16 11:56:53;;;;;;;2.88;1.70;;;32.50;24.40;;;;;;5073083;28;20028;-80
2021/06/16 11:59:31;;;;;;;2.10;1.60;;;32.90;23.50;;;;;;5082616;28;20035;-78
2021/06/16 12:02:06;;;;;;;2.13;1.67;;;33.00;23.40;;;;;;5086211;28;20423;-80
2021/06/16 12:04:52;;;;;;;3.88;1.70;;;33.20;23.60;;;;;;5073789;28;20039;-81
2021/06/16 12:07:22;;;;;;;4.45;2.10;;;33.30;22.90;;;;;;5072618;28;20107;-79
2021/06/16 12:09:52;;;;;;;5.47;2.30;;;33.40;22.90;;;;;;5072937;28;20024;-79
2021/06/16 12:12:18;;;;;;;3.17;2.05;;;33.60;22.40;;;;;;5072867;28;20350;-79
2021/06/16 12:14:43;;;;;;;2.03;1.83;;;33.50;22.20;;;;;;5075827;28;20027;-79
2021/06/16 12:17:09;;;;;;;2.33;1.80;;;33.60;22.10;;;;;;5081770;28;20108;-80
2021/06/16 12:19:36;;;;;;;2.42;1.92;;;33.60;22.40;;;;;;5078812;28;20016;-80
2021/06/16 12:22:11;;;;;;;2.38;2.17;;;33.40;22.80;;;;;;5071415;28;20477;-83
2021/06/16 12:24:39;;;;;;;7.68;2.03;;;33.60;22.60;;;;;;5072364;28;20078;-81
2021/06/16 12:27:06;;;;;;;6.20;1.88;;;33.40;22.10;;;;;;5071490;28;20028;-83
2021/06/16 12:29:38;;;;;;;4.13;2.25;;;33.20;22.30;;;;;;5072586;28;20435;-80
2021/06/16 12:32:07;;;;;;;3.00;2.50;;;33.00;22.90;;;;;;5072235;28;20100;-80
2021/06/16 12:37:14;;;;;;;4.22;1.95;;;32.60;23.10;;;;;;5072610;28;20061;-79
2021/06/16 12:39:58;;;;;;;3.38;2.08;;;32.40;23.70;;;;;;5072754;28;20031;-79
2021/06/16 12:42:41;;;;;;;4.70;2.03;;;32.60;25.30;;;;;;5072733;28;20025;-80
2021/06/16 12:45:32;;;;;;;2.90;1.73;;;32.60;23.40;;;;;;5072596;28;20029;-78
2021/06/16 12:48:00;;;;;;;2.78;1.98;;;32.70;22.90;;;;;;5072384;28;20036;-80
2021/06/16 12:50:34;;;;;;;2.42;2.22;;;32.70;23.10;;;;;;5072679;28;20496;-78
2021/06/16 12:53:14;;;;;;;5.43;2.15;;;32.90;23.20;;;;;;5072633;28;20108;-81
2021/06/16 12:55:49;;;;;;;5.13;2.13;;;33.10;23.40;;;;;;5072631;28;20039;-81
2021/06/16 12:58:15;;;;;;;;;;;33.30;23.10;;;;;;5073231;28;20107;-80
2021/06/16 13:00:43;;;;;;;4.03;1.98;;;33.40;22.60;;;;;;5072453;28;19947;-79